sensor_id;sensor_type;location;lat;lon;timestamp;temperature;humidity
66708;DHT22;53622;0.000;0.000;2023-03-30T00:00:15;21.50;50.90
66708;DHT22;53622;0.000;0.000;2023-03-30T00:02:50;21.50;50.90
66708;DHT22;53622;0.000;0.000;2023-03-30T00:05:20;21.50;51.00
66708;DHT22;53622;0.000;0.000;2023-03-30T00:07:50;21.40;51.00
66708;DHT22;53622;0.000;0.000;2023-03-30T00:10:20;21.40;51.00
66708;DHT22;53622;0.000;0.000;2023-03-30T00:12:50;21.50;51.00
66708;DHT22;53622;0.000;0.000;2023-03-30T00:15:21;21.40;51.00
66708;DHT22;53622;0.000;0.000;2023-03-30T00:17:52;21.40;50.90
66708;DHT22;53622;0.000;0.000;2023-03-30T00:20:22;21.40;51.00
66708;DHT22;53622;0.000;0.000;2023-03-30T00:22:51;21.40;51.00
66708;DHT22;53622;0.000;0.000;2023-03-30T00:25:21;21.40;51.00
66708;DHT22;53622;0.000;0.000;2023-03-30T00:27:50;21.40;51.00
66708;DHT22;53622;0.000;0.000;2023-03-30T00:30:19;21.40;51.00
66708;DHT22;53622;0.000;0.000;2023-03-30T00:32:48;21.40;51.00
66708;DHT22;53622;0.000;0.000;2023-03-30T00:35:19;21.40;51.00
66708;DHT22;53622;0.000;0.000;2023-03-30T00:37:48;21.40;51.00
66708;DHT22;53622;0.000;0.000;2023-03-30T00:40:21;21.40;51.00
66708;DHT22;53622;0.000;0.000;2023-03-30T00:42:50;21.30;51.00
66708;DHT22;53622;0.000;0.000;2023-03-30T00:45:23;21.30;51.00
66708;DHT22;53622;0.000;0.000;2023-03-30T00:47:59;21.30;51.00
66708;DHT22;53622;0.000;0.000;2023-03-30T00:50:34;21.30;51.00
66708;DHT22;53622;0.000;0.000;2023-03-30T00:53:08;21.30;51.00
66708;DHT22;53622;0.000;0.000;2023-03-30T00:55:39;21.30;51.00
66708;DHT22;53622;0.000;0.000;2023-03-30T00:58:09;21.30;51.00
66708;DHT22;53622;0.000;0.000;2023-03-30T01:00:39;21.30;51.00
66708;DHT22;53622;0.000;0.000;2023-03-30T01:03:15;21.30;51.00
66708;DHT22;53622;0.000;0.000;2023-03-30T01:05:47;21.30;51.00
66708;DHT22;53622;0.000;0.000;2023-03-30T01:08:18;21.30;51.10
66708;DHT22;53622;0.000;0.000;2023-03-30T01:10:51;21.30;51.10
66708;DHT22;53622;0.000;0.000;2023-03-30T01:13:21;21.30;51.10
66708;DHT22;53622;0.000;0.000;2023-03-30T01:15:58;21.30;51.10
66708;DHT22;53622;0.000;0.000;2023-03-30T01:18:39;21.30;51.10
66708;DHT22;53622;0.000;0.000;2023-03-30T01:21:46;21.20;51.00
66708;DHT22;53622;0.000;0.000;2023-03-30T01:27:44;21.20;51.10
66708;DHT22;53622;0.000;0.000;2023-03-30T01:30:36;21.30;51.20
66708;DHT22;53622;0.000;0.000;2023-03-30T01:33:32;21.20;51.20
66708;DHT22;53622;0.000;0.000;2023-03-30T01:36:33;21.30;51.20
66708;DHT22;53622;0.000;0.000;2023-03-30T01:42:16;21.20;51.10
66708;DHT22;53622;0.000;0.000;2023-03-30T01:44:53;21.20;51.10
66708;DHT22;53622;0.000;0.000;2023-03-30T01:47:27;21.20;51.10
66708;DHT22;53622;0.000;0.000;2023-03-30T01:50:02;21.20;51.10
66708;DHT22;53622;0.000;0.000;2023-03-30T01:52:38;21.20;51.20
66708;DHT22;53622;0.000;0.000;2023-03-30T01:55:14;21.20;51.10
66708;DHT22;53622;0.000;0.000;2023-03-30T01:57:49;21.20;51.10
66708;DHT22;53622;0.000;0.000;2023-03-30T02:00:22;21.20;51.10
66708;DHT22;53622;0.000;0.000;2023-03-30T02:02:56;21.20;51.10
66708;DHT22;53622;0.000;0.000;2023-03-30T02:05:28;21.20;51.10
66708;DHT22;53622;0.000;0.000;2023-03-30T02:08:02;21.20;51.10
66708;DHT22;53622;0.000;0.000;2023-03-30T02:10:35;21.20;51.10
66708;DHT22;53622;0.000;0.000;2023-03-30T02:13:07;21.20;51.20
66708;DHT22;53622;0.000;0.000;2023-03-30T02:15:42;21.20;51.10
66708;DHT22;53622;0.000;0.000;2023-03-30T02:18:12;21.20;51.10
66708;DHT22;53622;0.000;0.000;2023-03-30T02:20:42;21.10;51.10
66708;DHT22;53622;0.000;0.000;2023-03-30T02:23:11;21.20;51.10
66708;DHT22;53622;0.000;0.000;2023-03-30T02:25:42;21.10;51.10
66708;DHT22;53622;0.000;0.000;2023-03-30T02:28:11;21.10;51.10
66708;DHT22;53622;0.000;0.000;2023-03-30T02:30:43;21.10;51.10
66708;DHT22;53622;0.000;0.000;2023-03-30T02:33:22;21.20;51.10
66708;DHT22;53622;0.000;0.000;2023-03-30T02:39:11;21.10;51.10
66708;DHT22;53622;0.000;0.000;2023-03-30T02:42:02;21.10;51.10
66708;DHT22;53622;0.000;0.000;2023-03-30T02:44:40;21.10;51.10
66708;DHT22;53622;0.000;0.000;2023-03-30T02:47:14;21.10;51.20
66708;DHT22;53622;0.000;0.000;2023-03-30T02:49:53;21.10;51.20
66708;DHT22;53622;0.000;0.000;2023-03-30T02:52:38;21.10;51.10
66708;DHT22;53622;0.000;0.000;2023-03-30T02:55:13;21.10;51.20
66708;DHT22;53622;0.000;0.000;2023-03-30T02:58:09;21.10;51.10
66708;DHT22;53622;0.000;0.000;2023-03-30T03:00:47;21.00;51.10
66708;DHT22;53622;0.000;0.000;2023-03-30T03:03:25;21.00;51.10
66708;DHT22;53622;0.000;0.000;2023-03-30T03:05:55;21.00;51.10
66708;DHT22;53622;0.000;0.000;2023-03-30T03:08:34;21.10;51.10
66708;DHT22;53622;0.000;0.000;2023-03-30T03:11:05;21.10;51.10
66708;DHT22;53622;0.000;0.000;2023-03-30T03:13:37;21.00;51.10
66708;DHT22;53622;0.000;0.000;2023-03-30T03:16:08;21.00;51.10
66708;DHT22;53622;0.000;0.000;2023-03-30T03:18:46;21.00;51.00
66708;DHT22;53622;0.000;0.000;2023-03-30T03:21:16;21.00;51.00
66708;DHT22;53622;0.000;0.000;2023-03-30T03:23:45;21.00;51.00
66708;DHT22;53622;0.000;0.000;2023-03-30T03:26:18;21.00;51.10
66708;DHT22;53622;0.000;0.000;2023-03-30T03:28:49;21.00;51.10
66708;DHT22;53622;0.000;0.000;2023-03-30T03:31:19;21.00;51.10
66708;DHT22;53622;0.000;0.000;2023-03-30T03:33:49;21.00;51.10
66708;DHT22;53622;0.000;0.000;2023-03-30T03:36:23;21.00;51.10
66708;DHT22;53622;0.000;0.000;2023-03-30T03:38:53;21.00;51.00
66708;DHT22;53622;0.000;0.000;2023-03-30T03:41:22;21.00;51.00
66708;DHT22;53622;0.000;0.000;2023-03-30T03:43:53;21.00;51.00
66708;DHT22;53622;0.000;0.000;2023-03-30T03:46:22;21.00;51.00
66708;DHT22;53622;0.000;0.000;2023-03-30T03:48:52;21.00;51.00
66708;DHT22;53622;0.000;0.000;2023-03-30T03:51:22;21.00;51.00
66708;DHT22;53622;0.000;0.000;2023-03-30T03:53:51;21.00;51.00
66708;DHT22;53622;0.000;0.000;2023-03-30T03:56:20;21.00;51.00
66708;DHT22;53622;0.000;0.000;2023-03-30T03:58:50;21.00;51.00
66708;DHT22;53622;0.000;0.000;2023-03-30T04:01:21;21.00;51.00
66708;DHT22;53622;0.000;0.000;2023-03-30T04:03:50;21.00;51.00
66708;DHT22;53622;0.000;0.000;2023-03-30T04:06:19;21.00;51.00
66708;DHT22;53622;0.000;0.000;2023-03-30T04:08:49;20.90;50.90
66708;DHT22;53622;0.000;0.000;2023-03-30T04:11:23;20.90;51.00
66708;DHT22;53622;0.000;0.000;2023-03-30T04:14:10;20.90;51.00
66708;DHT22;53622;0.000;0.000;2023-03-30T04:17:01;20.90;51.00
66708;DHT22;53622;0.000;0.000;2023-03-30T04:19:41;20.90;51.10
66708;DHT22;53622;0.000;0.000;2023-03-30T04:22:37;20.90;51.10
66708;DHT22;53622;0.000;0.000;2023-03-30T04:25:21;20.90;51.10
66708;DHT22;53622;0.000;0.000;2023-03-30T04:27:55;20.90;51.10
66708;DHT22;53622;0.000;0.000;2023-03-30T04:30:48;20.90;51.20
66708;DHT22;53622;0.000;0.000;2023-03-30T04:33:42;20.90;51.30
66708;DHT22;53622;0.000;0.000;2023-03-30T04:36:37;20.90;51.40
66708;DHT22;53622;0.000;0.000;2023-03-30T04:39:35;20.90;51.40
66708;DHT22;53622;0.000;0.000;2023-03-30T04:42:30;20.90;51.40
66708;DHT22;53622;0.000;0.000;2023-03-30T04:45:33;20.90;51.50
66708;DHT22;53622;0.000;0.000;2023-03-30T04:48:32;20.90;51.50
66708;DHT22;53622;0.000;0.000;2023-03-30T04:51:03;20.90;51.70
66708;DHT22;53622;0.000;0.000;2023-03-30T04:53:32;20.90;51.70
66708;DHT22;53622;0.000;0.000;2023-03-30T04:56:33;20.90;52.30
66708;DHT22;53622;0.000;0.000;2023-03-30T04:59:03;20.90;51.80
66708;DHT22;53622;0.000;0.000;2023-03-30T05:01:57;20.90;51.70
66708;DHT22;53622;0.000;0.000;2023-03-30T05:04:35;20.90;51.70
66708;DHT22;53622;0.000;0.000;2023-03-30T05:07:26;20.90;51.70
66708;DHT22;53622;0.000;0.000;2023-03-30T05:10:15;20.90;51.70
66708;DHT22;53622;0.000;0.000;2023-03-30T05:13:05;20.90;51.70
66708;DHT22;53622;0.000;0.000;2023-03-30T05:15:54;20.90;51.70
66708;DHT22;53622;0.000;0.000;2023-03-30T05:18:47;20.90;51.70
66708;DHT22;53622;0.000;0.000;2023-03-30T05:21:36;20.90;51.70
66708;DHT22;53622;0.000;0.000;2023-03-30T05:24:27;20.90;51.80
66708;DHT22;53622;0.000;0.000;2023-03-30T05:27:05;20.90;51.70
66708;DHT22;53622;0.000;0.000;2023-03-30T05:29:55;20.80;51.70
66708;DHT22;53622;0.000;0.000;2023-03-30T05:32:45;20.80;51.70
66708;DHT22;53622;0.000;0.000;2023-03-30T05:35:43;20.90;51.70
66708;DHT22;53622;0.000;0.000;2023-03-30T05:38:22;20.80;51.60
66708;DHT22;53622;0.000;0.000;2023-03-30T05:41:05;20.80;51.60
66708;DHT22;53622;0.000;0.000;2023-03-30T05:43:53;20.80;51.60
66708;DHT22;53622;0.000;0.000;2023-03-30T05:46:43;20.80;51.60
66708;DHT22;53622;0.000;0.000;2023-03-30T05:49:30;20.80;51.60
66708;DHT22;53622;0.000;0.000;2023-03-30T05:52:24;20.80;51.60
66708;DHT22;53622;0.000;0.000;2023-03-30T05:55:10;20.80;51.60
66708;DHT22;53622;0.000;0.000;2023-03-30T05:58:07;20.80;51.60
66708;DHT22;53622;0.000;0.000;2023-03-30T06:00:48;20.80;51.60
66708;DHT22;53622;0.000;0.000;2023-03-30T06:03:30;20.80;51.60
66708;DHT22;53622;0.000;0.000;2023-03-30T06:06:00;20.80;51.60
66708;DHT22;53622;0.000;0.000;2023-03-30T06:08:30;20.80;51.70
66708;DHT22;53622;0.000;0.000;2023-03-30T06:11:03;20.80;51.90
66708;DHT22;53622;0.000;0.000;2023-03-30T06:13:45;20.80;51.50
66708;DHT22;53622;0.000;0.000;2023-03-30T06:16:16;20.80;51.50
66708;DHT22;53622;0.000;0.000;2023-03-30T06:18:46;20.80;51.60
66708;DHT22;53622;0.000;0.000;2023-03-30T06:21:16;20.80;51.50
66708;DHT22;53622;0.000;0.000;2023-03-30T06:23:58;20.80;51.50
66708;DHT22;53622;0.000;0.000;2023-03-30T06:26:31;20.80;51.40
66708;DHT22;53622;0.000;0.000;2023-03-30T06:29:02;20.80;51.50
66708;DHT22;53622;0.000;0.000;2023-03-30T06:31:32;20.80;51.50
66708;DHT22;53622;0.000;0.000;2023-03-30T06:34:40;20.80;51.50
66708;DHT22;53622;0.000;0.000;2023-03-30T06:37:11;20.80;51.40
66708;DHT22;53622;0.000;0.000;2023-03-30T06:39:44;20.80;51.40
66708;DHT22;53622;0.000;0.000;2023-03-30T06:42:13;20.80;51.40
66708;DHT22;53622;0.000;0.000;2023-03-30T06:45:03;20.80;51.40
66708;DHT22;53622;0.000;0.000;2023-03-30T06:47:32;20.80;51.50
66708;DHT22;53622;0.000;0.000;2023-03-30T06:50:02;20.80;51.40
66708;DHT22;53622;0.000;0.000;2023-03-30T06:52:51;20.80;51.40
66708;DHT22;53622;0.000;0.000;2023-03-30T06:55:21;20.80;51.40
66708;DHT22;53622;0.000;0.000;2023-03-30T06:57:52;20.70;51.30
66708;DHT22;53622;0.000;0.000;2023-03-30T07:00:23;20.80;51.40
66708;DHT22;53622;0.000;0.000;2023-03-30T07:03:10;20.70;51.30
66708;DHT22;53622;0.000;0.000;2023-03-30T07:05:51;20.70;51.30
66708;DHT22;53622;0.000;0.000;2023-03-30T07:08:49;20.80;51.40
66708;DHT22;53622;0.000;0.000;2023-03-30T07:11:24;20.70;51.30
66708;DHT22;53622;0.000;0.000;2023-03-30T07:13:53;20.70;51.30
66708;DHT22;53622;0.000;0.000;2023-03-30T07:16:26;20.70;51.40
66708;DHT22;53622;0.000;0.000;2023-03-30T07:18:56;20.80;51.40
66708;DHT22;53622;0.000;0.000;2023-03-30T07:21:25;20.70;51.30
66708;DHT22;53622;0.000;0.000;2023-03-30T07:23:55;20.70;51.30
66708;DHT22;53622;0.000;0.000;2023-03-30T07:26:30;20.70;51.30
66708;DHT22;53622;0.000;0.000;2023-03-30T07:29:05;20.70;51.30
66708;DHT22;53622;0.000;0.000;2023-03-30T07:31:38;20.70;51.30
66708;DHT22;53622;0.000;0.000;2023-03-30T07:34:10;20.70;51.30
66708;DHT22;53622;0.000;0.000;2023-03-30T07:36:46;20.70;51.30
66708;DHT22;53622;0.000;0.000;2023-03-30T07:39:16;20.70;51.30
66708;DHT22;53622;0.000;0.000;2023-03-30T07:41:47;20.70;51.30
66708;DHT22;53622;0.000;0.000;2023-03-30T07:44:17;20.70;51.30
66708;DHT22;53622;0.000;0.000;2023-03-30T07:46:48;20.70;51.30
66708;DHT22;53622;0.000;0.000;2023-03-30T07:49:23;20.70;51.30
66708;DHT22;53622;0.000;0.000;2023-03-30T07:51:53;20.70;51.30
66708;DHT22;53622;0.000;0.000;2023-03-30T07:54:33;20.80;51.40
66708;DHT22;53622;0.000;0.000;2023-03-30T07:57:25;20.70;51.30
66708;DHT22;53622;0.000;0.000;2023-03-30T07:59:55;20.70;51.30
66708;DHT22;53622;0.000;0.000;2023-03-30T08:03:01;20.80;51.40
66708;DHT22;53622;0.000;0.000;2023-03-30T08:05:31;20.80;51.40
66708;DHT22;53622;0.000;0.000;2023-03-30T08:08:09;20.80;51.40
66708;DHT22;53622;0.000;0.000;2023-03-30T08:10:40;20.80;51.40
66708;DHT22;53622;0.000;0.000;2023-03-30T08:13:09;20.80;51.40
66708;DHT22;53622;0.000;0.000;2023-03-30T08:15:39;20.80;51.40
66708;DHT22;53622;0.000;0.000;2023-03-30T08:18:10;20.80;51.40
66708;DHT22;53622;0.000;0.000;2023-03-30T08:20:42;20.80;51.40
66708;DHT22;53622;0.000;0.000;2023-03-30T08:23:11;20.80;51.40
66708;DHT22;53622;0.000;0.000;2023-03-30T08:25:40;20.80;51.40
66708;DHT22;53622;0.000;0.000;2023-03-30T08:28:13;20.80;51.40
66708;DHT22;53622;0.000;0.000;2023-03-30T08:30:43;20.80;51.50
66708;DHT22;53622;0.000;0.000;2023-03-30T08:33:13;20.80;51.40
66708;DHT22;53622;0.000;0.000;2023-03-30T08:35:43;20.80;51.40
66708;DHT22;53622;0.000;0.000;2023-03-30T08:38:13;20.80;51.40
66708;DHT22;53622;0.000;0.000;2023-03-30T08:40:46;20.80;51.40
66708;DHT22;53622;0.000;0.000;2023-03-30T08:43:32;20.80;51.40
66708;DHT22;53622;0.000;0.000;2023-03-30T08:46:06;20.80;51.40
66708;DHT22;53622;0.000;0.000;2023-03-30T08:48:41;20.80;51.40
66708;DHT22;53622;0.000;0.000;2023-03-30T08:51:19;20.80;51.50
66708;DHT22;53622;0.000;0.000;2023-03-30T08:53:54;20.80;51.50
66708;DHT22;53622;0.000;0.000;2023-03-30T08:56:26;20.80;51.50
66708;DHT22;53622;0.000;0.000;2023-03-30T08:59:03;20.80;51.50
66708;DHT22;53622;0.000;0.000;2023-03-30T09:01:40;20.80;51.50
66708;DHT22;53622;0.000;0.000;2023-03-30T09:04:19;20.80;51.50
66708;DHT22;53622;0.000;0.000;2023-03-30T09:06:51;20.80;51.50
66708;DHT22;53622;0.000;0.000;2023-03-30T09:09:23;20.80;51.60
66708;DHT22;53622;0.000;0.000;2023-03-30T09:11:57;20.80;51.50
66708;DHT22;53622;0.000;0.000;2023-03-30T09:14:33;20.80;51.50
66708;DHT22;53622;0.000;0.000;2023-03-30T09:17:07;20.80;51.60
66708;DHT22;53622;0.000;0.000;2023-03-30T09:19:48;20.80;51.50
66708;DHT22;53622;0.000;0.000;2023-03-30T09:22:20;20.80;51.50
66708;DHT22;53622;0.000;0.000;2023-03-30T09:24:49;20.80;51.50
66708;DHT22;53622;0.000;0.000;2023-03-30T09:27:23;20.80;51.50
66708;DHT22;53622;0.000;0.000;2023-03-30T09:29:59;20.80;51.50
66708;DHT22;53622;0.000;0.000;2023-03-30T09:32:38;20.80;51.50
66708;DHT22;53622;0.000;0.000;2023-03-30T09:35:12;20.80;51.50
66708;DHT22;53622;0.000;0.000;2023-03-30T09:37:43;20.80;51.60
66708;DHT22;53622;0.000;0.000;2023-03-30T09:40:24;20.80;51.60
66708;DHT22;53622;0.000;0.000;2023-03-30T09:43:00;20.80;51.60
66708;DHT22;53622;0.000;0.000;2023-03-30T09:45:35;20.80;51.60
66708;DHT22;53622;0.000;0.000;2023-03-30T09:48:05;20.80;52.20
66708;DHT22;53622;0.000;0.000;2023-03-30T09:50:42;20.80;51.60
66708;DHT22;53622;0.000;0.000;2023-03-30T09:53:22;20.80;51.60
66708;DHT22;53622;0.000;0.000;2023-03-30T09:56:00;20.80;51.60
66708;DHT22;53622;0.000;0.000;2023-03-30T09:58:32;20.80;51.60
66708;DHT22;53622;0.000;0.000;2023-03-30T10:01:05;20.80;51.60
66708;DHT22;53622;0.000;0.000;2023-03-30T10:03:35;20.80;51.60
66708;DHT22;53622;0.000;0.000;2023-03-30T10:06:07;20.80;51.60
66708;DHT22;53622;0.000;0.000;2023-03-30T10:08:42;20.80;51.60
66708;DHT22;53622;0.000;0.000;2023-03-30T10:11:11;20.80;51.60
66708;DHT22;53622;0.000;0.000;2023-03-30T10:13:41;20.80;51.60
66708;DHT22;53622;0.000;0.000;2023-03-30T10:16:20;20.80;51.60
66708;DHT22;53622;0.000;0.000;2023-03-30T10:18:53;20.80;51.60
66708;DHT22;53622;0.000;0.000;2023-03-30T10:21:29;20.80;51.70
66708;DHT22;53622;0.000;0.000;2023-03-30T10:24:01;20.80;51.80
66708;DHT22;53622;0.000;0.000;2023-03-30T10:26:35;20.80;51.80
66708;DHT22;53622;0.000;0.000;2023-03-30T10:29:06;20.80;51.80
66708;DHT22;53622;0.000;0.000;2023-03-30T10:31:38;20.80;51.80
66708;DHT22;53622;0.000;0.000;2023-03-30T10:34:16;20.80;51.80
66708;DHT22;53622;0.000;0.000;2023-03-30T10:36:49;20.80;51.80
66708;DHT22;53622;0.000;0.000;2023-03-30T10:39:23;20.80;51.80
66708;DHT22;53622;0.000;0.000;2023-03-30T10:41:54;20.80;51.80
66708;DHT22;53622;0.000;0.000;2023-03-30T10:44:30;20.80;51.80
66708;DHT22;53622;0.000;0.000;2023-03-30T10:47:10;20.80;51.80
66708;DHT22;53622;0.000;0.000;2023-03-30T10:49:52;20.80;51.80
66708;DHT22;53622;0.000;0.000;2023-03-30T10:52:31;20.80;51.90
66708;DHT22;53622;0.000;0.000;2023-03-30T10:55:15;20.80;51.90
66708;DHT22;53622;0.000;0.000;2023-03-30T10:57:52;20.80;51.90
66708;DHT22;53622;0.000;0.000;2023-03-30T11:00:41;20.80;51.90
66708;DHT22;53622;0.000;0.000;2023-03-30T11:03:19;20.80;51.90
66708;DHT22;53622;0.000;0.000;2023-03-30T11:05:53;20.80;51.80
66708;DHT22;53622;0.000;0.000;2023-03-30T11:08:28;20.80;51.80
66708;DHT22;53622;0.000;0.000;2023-03-30T11:10:59;20.80;51.80
66708;DHT22;53622;0.000;0.000;2023-03-30T11:13:31;20.80;51.80
66708;DHT22;53622;0.000;0.000;2023-03-30T11:16:05;20.80;51.80
66708;DHT22;53622;0.000;0.000;2023-03-30T11:18:41;20.80;51.90
66708;DHT22;53622;0.000;0.000;2023-03-30T11:21:16;20.80;51.90
66708;DHT22;53622;0.000;0.000;2023-03-30T11:23:53;20.80;52.40
66708;DHT22;53622;0.000;0.000;2023-03-30T11:26:30;20.80;51.90
66708;DHT22;53622;0.000;0.000;2023-03-30T11:29:08;20.80;51.90
66708;DHT22;53622;0.000;0.000;2023-03-30T11:31:51;20.80;51.90
66708;DHT22;53622;0.000;0.000;2023-03-30T11:34:28;20.80;51.90
66708;DHT22;53622;0.000;0.000;2023-03-30T11:37:04;20.80;51.90
66708;DHT22;53622;0.000;0.000;2023-03-30T11:39:46;20.80;51.90
66708;DHT22;53622;0.000;0.000;2023-03-30T11:42:21;20.80;51.90
66708;DHT22;53622;0.000;0.000;2023-03-30T11:44:52;20.80;51.90
66708;DHT22;53622;0.000;0.000;2023-03-30T11:47:32;20.80;51.90
66708;DHT22;53622;0.000;0.000;2023-03-30T11:50:15;20.80;51.90
66708;DHT22;53622;0.000;0.000;2023-03-30T11:52:52;20.80;51.90
66708;DHT22;53622;0.000;0.000;2023-03-30T11:55:33;20.80;51.90
66708;DHT22;53622;0.000;0.000;2023-03-30T11:58:14;20.80;51.90
66708;DHT22;53622;0.000;0.000;2023-03-30T12:00:50;20.80;51.90
66708;DHT22;53622;0.000;0.000;2023-03-30T12:03:35;20.80;51.90
66708;DHT22;53622;0.000;0.000;2023-03-30T12:06:15;20.80;52.60
66708;DHT22;53622;0.000;0.000;2023-03-30T12:09:03;20.80;52.00
66708;DHT22;53622;0.000;0.000;2023-03-30T12:11:38;20.80;52.00
66708;DHT22;53622;0.000;0.000;2023-03-30T12:17:14;20.80;51.90
66708;DHT22;53622;0.000;0.000;2023-03-30T12:19:49;20.80;51.90
66708;DHT22;53622;0.000;0.000;2023-03-30T12:22:29;20.80;52.00
66708;DHT22;53622;0.000;0.000;2023-03-30T12:25:06;20.80;52.00
66708;DHT22;53622;0.000;0.000;2023-03-30T12:28:02;20.80;51.90
66708;DHT22;53622;0.000;0.000;2023-03-30T12:30:42;20.80;51.90
66708;DHT22;53622;0.000;0.000;2023-03-30T12:33:17;20.80;52.00
66708;DHT22;53622;0.000;0.000;2023-03-30T12:35:57;20.80;52.00
66708;DHT22;53622;0.000;0.000;2023-03-30T12:38:35;20.80;52.00
66708;DHT22;53622;0.000;0.000;2023-03-30T12:41:08;20.80;52.00
66708;DHT22;53622;0.000;0.000;2023-03-30T12:44:34;20.80;51.90
66708;DHT22;53622;0.000;0.000;2023-03-30T12:47:35;20.80;52.00
66708;DHT22;53622;0.000;0.000;2023-03-30T12:50:17;20.80;52.00
66708;DHT22;53622;0.000;0.000;2023-03-30T12:52:58;20.80;52.00
66708;DHT22;53622;0.000;0.000;2023-03-30T12:55:39;20.80;52.00
66708;DHT22;53622;0.000;0.000;2023-03-30T12:58:32;20.80;52.00
66708;DHT22;53622;0.000;0.000;2023-03-30T13:04:05;20.80;52.00
66708;DHT22;53622;0.000;0.000;2023-03-30T13:06:41;20.80;52.00
66708;DHT22;53622;0.000;0.000;2023-03-30T13:09:35;20.80;52.00
66708;DHT22;53622;0.000;0.000;2023-03-30T13:12:37;20.80;52.00
66708;DHT22;53622;0.000;0.000;2023-03-30T13:15:41;20.80;51.90
66708;DHT22;53622;0.000;0.000;2023-03-30T13:18:33;20.80;51.90
66708;DHT22;53622;0.000;0.000;2023-03-30T13:21:18;20.80;51.90
66708;DHT22;53622;0.000;0.000;2023-03-30T13:24:00;20.90;51.90
66708;DHT22;53622;0.000;0.000;2023-03-30T13:26:41;20.80;51.90
66708;DHT22;53622;0.000;0.000;2023-03-30T13:29:12;20.90;51.80
66708;DHT22;53622;0.000;0.000;2023-03-30T13:31:59;20.90;51.80
66708;DHT22;53622;0.000;0.000;2023-03-30T13:34:50;20.80;51.80
66708;DHT22;53622;0.000;0.000;2023-03-30T13:37:50;20.80;51.80
66708;DHT22;53622;0.000;0.000;2023-03-30T13:40:25;20.80;51.80
66708;DHT22;53622;0.000;0.000;2023-03-30T13:43:18;20.90;51.90
66708;DHT22;53622;0.000;0.000;2023-03-30T13:45:57;20.80;51.90
66708;DHT22;53622;0.000;0.000;2023-03-30T13:48:44;20.90;52.00
66708;DHT22;53622;0.000;0.000;2023-03-30T13:51:23;20.80;52.50
66708;DHT22;53622;0.000;0.000;2023-03-30T13:53:57;20.80;52.00
66708;DHT22;53622;0.000;0.000;2023-03-30T13:56:29;20.80;51.90
66708;DHT22;53622;0.000;0.000;2023-03-30T13:59:02;20.80;51.90
66708;DHT22;53622;0.000;0.000;2023-03-30T14:01:33;20.80;51.90
66708;DHT22;53622;0.000;0.000;2023-03-30T14:04:08;20.90;52.00
66708;DHT22;53622;0.000;0.000;2023-03-30T14:06:43;20.90;51.90
66708;DHT22;53622;0.000;0.000;2023-03-30T14:09:19;20.80;51.90
66708;DHT22;53622;0.000;0.000;2023-03-30T14:11:50;20.90;51.90
66708;DHT22;53622;0.000;0.000;2023-03-30T14:14:23;20.90;51.90
66708;DHT22;53622;0.000;0.000;2023-03-30T14:16:55;20.80;52.00
66708;DHT22;53622;0.000;0.000;2023-03-30T14:19:27;20.80;52.00
66708;DHT22;53622;0.000;0.000;2023-03-30T14:22:00;20.90;52.00
66708;DHT22;53622;0.000;0.000;2023-03-30T14:24:32;20.90;52.10
66708;DHT22;53622;0.000;0.000;2023-03-30T14:27:04;20.80;52.00
66708;DHT22;53622;0.000;0.000;2023-03-30T14:29:43;20.80;52.10
66708;DHT22;53622;0.000;0.000;2023-03-30T14:32:14;20.80;52.20
66708;DHT22;53622;0.000;0.000;2023-03-30T14:34:45;20.90;52.10
66708;DHT22;53622;0.000;0.000;2023-03-30T14:37:17;20.80;52.10
66708;DHT22;53622;0.000;0.000;2023-03-30T14:39:51;20.90;52.10
66708;DHT22;53622;0.000;0.000;2023-03-30T14:42:24;20.80;52.10
66708;DHT22;53622;0.000;0.000;2023-03-30T14:44:55;20.80;52.10
66708;DHT22;53622;0.000;0.000;2023-03-30T14:47:25;20.80;52.10
66708;DHT22;53622;0.000;0.000;2023-03-30T14:49:57;20.80;52.10
66708;DHT22;53622;0.000;0.000;2023-03-30T14:52:31;20.90;52.10
66708;DHT22;53622;0.000;0.000;2023-03-30T14:55:01;20.90;52.10
66708;DHT22;53622;0.000;0.000;2023-03-30T14:57:39;20.90;52.10
66708;DHT22;53622;0.000;0.000;2023-03-30T15:00:12;20.80;52.20
66708;DHT22;53622;0.000;0.000;2023-03-30T15:02:46;20.80;52.10
66708;DHT22;53622;0.000;0.000;2023-03-30T15:05:17;20.80;52.10
66708;DHT22;53622;0.000;0.000;2023-03-30T15:07:50;20.80;52.00
66708;DHT22;53622;0.000;0.000;2023-03-30T15:10:22;20.90;51.90
66708;DHT22;53622;0.000;0.000;2023-03-30T15:12:54;20.90;51.90
66708;DHT22;53622;0.000;0.000;2023-03-30T15:15:27;20.90;51.90
66708;DHT22;53622;0.000;0.000;2023-03-30T15:17:58;20.90;52.00
66708;DHT22;53622;0.000;0.000;2023-03-30T15:20:29;20.90;52.10
66708;DHT22;53622;0.000;0.000;2023-03-30T15:23:00;20.90;52.10
66708;DHT22;53622;0.000;0.000;2023-03-30T15:25:31;20.90;52.20
66708;DHT22;53622;0.000;0.000;2023-03-30T15:28:04;20.90;52.20
66708;DHT22;53622;0.000;0.000;2023-03-30T15:30:35;20.90;52.20
66708;DHT22;53622;0.000;0.000;2023-03-30T15:33:06;20.90;52.30
66708;DHT22;53622;0.000;0.000;2023-03-30T15:35:48;20.90;52.40
66708;DHT22;53622;0.000;0.000;2023-03-30T15:38:28;20.90;52.40
66708;DHT22;53622;0.000;0.000;2023-03-30T15:40:58;20.90;52.40
66708;DHT22;53622;0.000;0.000;2023-03-30T15:43:29;20.90;52.40
66708;DHT22;53622;0.000;0.000;2023-03-30T15:46:03;20.90;52.40
66708;DHT22;53622;0.000;0.000;2023-03-30T15:48:37;20.90;52.40
66708;DHT22;53622;0.000;0.000;2023-03-30T15:51:12;20.90;52.40
66708;DHT22;53622;0.000;0.000;2023-03-30T15:53:48;20.90;52.50
66708;DHT22;53622;0.000;0.000;2023-03-30T15:56:26;20.90;52.30
66708;DHT22;53622;0.000;0.000;2023-03-30T15:58:56;20.90;52.20
66708;DHT22;53622;0.000;0.000;2023-03-30T16:01:37;20.90;52.50
66708;DHT22;53622;0.000;0.000;2023-03-30T16:04:09;20.90;52.40
66708;DHT22;53622;0.000;0.000;2023-03-30T16:06:41;20.90;52.50
66708;DHT22;53622;0.000;0.000;2023-03-30T16:09:15;21.00;53.10
66708;DHT22;53622;0.000;0.000;2023-03-30T16:11:45;21.00;53.10
66708;DHT22;53622;0.000;0.000;2023-03-30T16:14:17;21.00;53.30
66708;DHT22;53622;0.000;0.000;2023-03-30T16:16:49;21.00;53.30
66708;DHT22;53622;0.000;0.000;2023-03-30T16:19:18;21.00;53.40
66708;DHT22;53622;0.000;0.000;2023-03-30T16:21:52;21.00;53.40
66708;DHT22;53622;0.000;0.000;2023-03-30T16:24:22;21.00;53.30
66708;DHT22;53622;0.000;0.000;2023-03-30T16:26:52;21.00;53.30
66708;DHT22;53622;0.000;0.000;2023-03-30T16:29:22;21.00;53.40
66708;DHT22;53622;0.000;0.000;2023-03-30T16:31:52;21.00;53.40
66708;DHT22;53622;0.000;0.000;2023-03-30T16:34:22;21.00;53.40
66708;DHT22;53622;0.000;0.000;2023-03-30T16:36:51;20.90;53.40
66708;DHT22;53622;0.000;0.000;2023-03-30T16:39:24;20.90;53.30
66708;DHT22;53622;0.000;0.000;2023-03-30T16:41:55;20.90;53.30
66708;DHT22;53622;0.000;0.000;2023-03-30T16:44:24;21.00;53.40
66708;DHT22;53622;0.000;0.000;2023-03-30T16:46:53;20.90;53.50
66708;DHT22;53622;0.000;0.000;2023-03-30T16:49:24;20.90;53.60
66708;DHT22;53622;0.000;0.000;2023-03-30T16:51:53;21.00;53.60
66708;DHT22;53622;0.000;0.000;2023-03-30T16:54:26;21.00;53.60
66708;DHT22;53622;0.000;0.000;2023-03-30T16:57:00;21.00;53.50
66708;DHT22;53622;0.000;0.000;2023-03-30T16:59:30;21.00;53.40